sensor_id;sensor_type;location;lat;lon;timestamp;P1;durP1;ratioP1;P2;durP2;ratioP2
54993;SDS011;40891;47.242;8.648;2024-03-22T00:01:39;2.80;;;2.33;;
54993;SDS011;40891;47.242;8.648;2024-03-22T00:04:05;4.63;;;2.40;;
54993;SDS011;40891;47.242;8.648;2024-03-22T00:06:30;4.27;;;2.27;;
54993;SDS011;40891;47.242;8.648;2024-03-22T00:08:55;7.80;;;2.70;;
54993;SDS011;40891;47.242;8.648;2024-03-22T00:11:21;6.40;;;2.37;;
54993;SDS011;40891;47.242;8.648;2024-03-22T00:13:46;4.47;;;2.50;;
54993;SDS011;40891;47.242;8.648;2024-03-22T00:16:11;8.47;;;2.57;;
54993;SDS011;40891;47.242;8.648;2024-03-22T00:18:37;3.27;;;2.50;;
54993;SDS011;40891;47.242;8.648;2024-03-22T00:21:02;4.67;;;2.57;;
54993;SDS011;40891;47.242;8.648;2024-03-22T00:23:28;4.97;;;2.37;;
54993;SDS011;40891;47.242;8.648;2024-03-22T00:25:54;5.53;;;2.70;;
54993;SDS011;40891;47.242;8.648;2024-03-22T00:28:19;4.20;;;2.63;;
54993;SDS011;40891;47.242;8.648;2024-03-22T00:30:45;7.73;;;3.03;;
54993;SDS011;40891;47.242;8.648;2024-03-22T00:33:10;8.33;;;3.00;;
54993;SDS011;40891;47.242;8.648;2024-03-22T00:35:35;5.37;;;3.30;;
54993;SDS011;40891;47.242;8.648;2024-03-22T00:38:01;4.87;;;2.60;;
54993;SDS011;40891;47.242;8.648;2024-03-22T00:40:26;4.93;;;2.90;;
54993;SDS011;40891;47.242;8.648;2024-03-22T00:42:52;4.47;;;2.23;;
54993;SDS011;40891;47.242;8.648;2024-03-22T00:45:17;4.73;;;2.27;;
54993;SDS011;40891;47.242;8.648;2024-03-22T00:47:43;4.73;;;2.70;;
54993;SDS011;40891;47.242;8.648;2024-03-22T00:50:08;4.70;;;2.70;;
54993;SDS011;40891;47.242;8.648;2024-03-22T00:52:33;4.63;;;2.57;;
54993;SDS011;40891;47.242;8.648;2024-03-22T00:54:59;4.33;;;2.57;;
54993;SDS011;40891;47.242;8.648;2024-03-22T00:57:24;3.63;;;2.63;;
54993;SDS011;40891;47.242;8.648;2024-03-22T00:59:50;4.03;;;2.97;;
54993;SDS011;40891;47.242;8.648;2024-03-22T01:02:15;7.63;;;2.67;;
54993;SDS011;40891;47.242;8.648;2024-03-22T01:04:40;5.43;;;2.90;;
54993;SDS011;40891;47.242;8.648;2024-03-22T01:07:06;3.83;;;2.47;;
54993;SDS011;40891;47.242;8.648;2024-03-22T01:09:31;3.60;;;2.43;;
54993;SDS011;40891;47.242;8.648;2024-03-22T01:11:56;5.93;;;2.73;;
54993;SDS011;40891;47.242;8.648;2024-03-22T01:14:22;4.17;;;2.63;;
54993;SDS011;40891;47.242;8.648;2024-03-22T01:16:47;4.73;;;3.00;;
54993;SDS011;40891;47.242;8.648;2024-03-22T01:19:12;7.33;;;2.60;;
54993;SDS011;40891;47.242;8.648;2024-03-22T01:21:38;6.00;;;2.60;;
54993;SDS011;40891;47.242;8.648;2024-03-22T01:24:03;5.73;;;2.70;;
54993;SDS011;40891;47.242;8.648;2024-03-22T01:26:28;4.57;;;2.90;;
54993;SDS011;40891;47.242;8.648;2024-03-22T01:28:54;4.00;;;2.90;;
54993;SDS011;40891;47.242;8.648;2024-03-22T01:31:19;4.83;;;2.37;;
54993;SDS011;40891;47.242;8.648;2024-03-22T01:33:44;5.67;;;3.00;;
54993;SDS011;40891;47.242;8.648;2024-03-22T01:36:10;6.30;;;2.60;;
54993;SDS011;40891;47.242;8.648;2024-03-22T01:38:35;4.33;;;2.63;;
54993;SDS011;40891;47.242;8.648;2024-03-22T01:41:00;5.00;;;2.90;;
54993;SDS011;40891;47.242;8.648;2024-03-22T01:43:25;7.00;;;2.63;;
54993;SDS011;40891;47.242;8.648;2024-03-22T01:45:51;5.40;;;2.80;;
54993;SDS011;40891;47.242;8.648;2024-03-22T01:48:16;3.40;;;2.43;;
54993;SDS011;40891;47.242;8.648;2024-03-22T01:50:42;4.67;;;2.77;;
54993;SDS011;40891;47.242;8.648;2024-03-22T01:53:08;3.47;;;2.57;;
54993;SDS011;40891;47.242;8.648;2024-03-22T01:55:34;3.93;;;2.50;;
54993;SDS011;40891;47.242;8.648;2024-03-22T01:57:59;5.13;;;2.47;;
54993;SDS011;40891;47.242;8.648;2024-03-22T02:00:25;3.97;;;2.30;;
54993;SDS011;40891;47.242;8.648;2024-03-22T02:02:50;4.87;;;2.70;;
54993;SDS011;40891;47.242;8.648;2024-03-22T02:05:16;4.13;;;2.77;;
54993;SDS011;40891;47.242;8.648;2024-03-22T02:07:46;4.33;;;2.13;;
54993;SDS011;40891;47.242;8.648;2024-03-22T02:10:12;3.93;;;2.80;;
54993;SDS011;40891;47.242;8.648;2024-03-22T02:12:40;5.90;;;2.90;;
54993;SDS011;40891;47.242;8.648;2024-03-22T02:15:06;5.57;;;2.73;;
54993;SDS011;40891;47.242;8.648;2024-03-22T02:17:33;4.43;;;2.73;;
54993;SDS011;40891;47.242;8.648;2024-03-22T02:19:59;8.47;;;3.03;;
54993;SDS011;40891;47.242;8.648;2024-03-22T02:22:25;3.57;;;2.70;;
54993;SDS011;40891;47.242;8.648;2024-03-22T02:24:51;4.20;;;2.97;;
54993;SDS011;40891;47.242;8.648;2024-03-22T02:27:16;7.93;;;2.67;;
54993;SDS011;40891;47.242;8.648;2024-03-22T02:29:42;3.23;;;2.50;;
54993;SDS011;40891;47.242;8.648;2024-03-22T02:32:07;6.60;;;2.87;;
54993;SDS011;40891;47.242;8.648;2024-03-22T02:34:32;4.33;;;2.80;;
54993;SDS011;40891;47.242;8.648;2024-03-22T02:36:58;6.67;;;2.80;;
54993;SDS011;40891;47.242;8.648;2024-03-22T02:39:23;5.17;;;2.77;;
54993;SDS011;40891;47.242;8.648;2024-03-22T02:41:50;4.67;;;3.17;;
54993;SDS011;40891;47.242;8.648;2024-03-22T02:44:15;5.13;;;2.80;;
54993;SDS011;40891;47.242;8.648;2024-03-22T02:46:41;4.83;;;2.57;;
54993;SDS011;40891;47.242;8.648;2024-03-22T02:49:06;7.40;;;2.80;;
54993;SDS011;40891;47.242;8.648;2024-03-22T02:51:31;6.03;;;2.90;;
54993;SDS011;40891;47.242;8.648;2024-03-22T02:53:57;4.33;;;2.80;;
54993;SDS011;40891;47.242;8.648;2024-03-22T02:56:22;4.73;;;3.23;;
54993;SDS011;40891;47.242;8.648;2024-03-22T02:58:51;6.47;;;3.10;;
54993;SDS011;40891;47.242;8.648;2024-03-22T03:01:16;7.10;;;2.63;;
54993;SDS011;40891;47.242;8.648;2024-03-22T03:03:42;7.30;;;3.17;;
54993;SDS011;40891;47.242;8.648;2024-03-22T03:06:07;4.47;;;2.97;;
54993;SDS011;40891;47.242;8.648;2024-03-22T03:08:33;3.80;;;2.53;;
54993;SDS011;40891;47.242;8.648;2024-03-22T03:10:59;6.67;;;2.80;;
54993;SDS011;40891;47.242;8.648;2024-03-22T03:13:24;4.33;;;2.60;;
54993;SDS011;40891;47.242;8.648;2024-03-22T03:15:51;6.27;;;2.50;;
54993;SDS011;40891;47.242;8.648;2024-03-22T03:18:16;4.37;;;2.80;;
54993;SDS011;40891;47.242;8.648;2024-03-22T03:20:41;3.77;;;2.23;;
54993;SDS011;40891;47.242;8.648;2024-03-22T03:23:07;7.50;;;2.57;;
54993;SDS011;40891;47.242;8.648;2024-03-22T03:25:32;4.67;;;2.90;;
54993;SDS011;40891;47.242;8.648;2024-03-22T03:27:57;6.70;;;2.73;;
54993;SDS011;40891;47.242;8.648;2024-03-22T03:30:23;4.33;;;2.53;;
54993;SDS011;40891;47.242;8.648;2024-03-22T03:32:48;3.00;;;2.10;;
54993;SDS011;40891;47.242;8.648;2024-03-22T03:35:13;5.57;;;2.50;;
54993;SDS011;40891;47.242;8.648;2024-03-22T03:37:39;4.90;;;2.80;;
54993;SDS011;40891;47.242;8.648;2024-03-22T03:40:04;2.70;;;2.27;;
54993;SDS011;40891;47.242;8.648;2024-03-22T03:42:30;4.63;;;3.03;;
54993;SDS011;40891;47.242;8.648;2024-03-22T03:44:55;6.00;;;3.97;;
54993;SDS011;40891;47.242;8.648;2024-03-22T03:47:21;4.87;;;3.20;;
54993;SDS011;40891;47.242;8.648;2024-03-22T03:49:46;4.70;;;3.00;;
54993;SDS011;40891;47.242;8.648;2024-03-22T03:52:11;5.60;;;2.90;;
54993;SDS011;40891;47.242;8.648;2024-03-22T03:54:37;5.87;;;3.30;;
54993;SDS011;40891;47.242;8.648;2024-03-22T03:57:02;3.20;;;2.63;;
54993;SDS011;40891;47.242;8.648;2024-03-22T03:59:28;5.67;;;3.13;;
54993;SDS011;40891;47.242;8.648;2024-03-22T04:01:54;4.40;;;3.13;;
54993;SDS011;40891;47.242;8.648;2024-03-22T04:04:20;6.00;;;3.00;;
54993;SDS011;40891;47.242;8.648;2024-03-22T04:06:45;5.03;;;2.67;;
54993;SDS011;40891;47.242;8.648;2024-03-22T04:09:11;5.00;;;2.50;;
54993;SDS011;40891;47.242;8.648;2024-03-22T04:11:36;5.20;;;3.27;;
54993;SDS011;40891;47.242;8.648;2024-03-22T04:14:02;4.97;;;2.57;;
54993;SDS011;40891;47.242;8.648;2024-03-22T04:16:28;4.50;;;2.70;;
54993;SDS011;40891;47.242;8.648;2024-03-22T04:18:53;4.50;;;2.97;;
54993;SDS011;40891;47.242;8.648;2024-03-22T04:21:18;3.73;;;2.90;;
54993;SDS011;40891;47.242;8.648;2024-03-22T04:23:44;4.40;;;2.57;;
54993;SDS011;40891;47.242;8.648;2024-03-22T04:26:09;7.03;;;3.13;;
54993;SDS011;40891;47.242;8.648;2024-03-22T04:28:35;6.33;;;3.07;;
54993;SDS011;40891;47.242;8.648;2024-03-22T04:31:05;7.27;;;3.27;;
54993;SDS011;40891;47.242;8.648;2024-03-22T04:33:34;5.93;;;3.40;;
54993;SDS011;40891;47.242;8.648;2024-03-22T04:36:00;5.10;;;3.33;;
54993;SDS011;40891;47.242;8.648;2024-03-22T04:38:26;6.60;;;3.23;;
54993;SDS011;40891;47.242;8.648;2024-03-22T04:40:51;6.03;;;3.47;;
54993;SDS011;40891;47.242;8.648;2024-03-22T04:43:17;3.93;;;3.27;;
54993;SDS011;40891;47.242;8.648;2024-03-22T04:45:43;4.53;;;2.80;;
54993;SDS011;40891;47.242;8.648;2024-03-22T04:48:12;4.97;;;3.30;;
54993;SDS011;40891;47.242;8.648;2024-03-22T04:50:39;5.70;;;3.20;;
54993;SDS011;40891;47.242;8.648;2024-03-22T04:53:04;6.63;;;3.33;;
54993;SDS011;40891;47.242;8.648;2024-03-22T04:55:30;7.47;;;3.10;;
54993;SDS011;40891;47.242;8.648;2024-03-22T04:57:56;8.73;;;3.00;;
54993;SDS011;40891;47.242;8.648;2024-03-22T05:00:21;4.27;;;2.63;;
54993;SDS011;40891;47.242;8.648;2024-03-22T05:02:47;7.77;;;2.67;;
54993;SDS011;40891;47.242;8.648;2024-03-22T05:05:12;5.63;;;2.80;;
54993;SDS011;40891;47.242;8.648;2024-03-22T05:07:38;5.27;;;2.50;;
54993;SDS011;40891;47.242;8.648;2024-03-22T05:10:03;5.17;;;2.70;;
54993;SDS011;40891;47.242;8.648;2024-03-22T05:12:30;4.67;;;2.57;;
54993;SDS011;40891;47.242;8.648;2024-03-22T05:14:55;5.67;;;2.53;;
54993;SDS011;40891;47.242;8.648;2024-03-22T05:17:21;6.33;;;2.80;;
54993;SDS011;40891;47.242;8.648;2024-03-22T05:19:46;7.50;;;2.50;;
54993;SDS011;40891;47.242;8.648;2024-03-22T05:22:11;4.27;;;2.97;;
54993;SDS011;40891;47.242;8.648;2024-03-22T05:24:37;3.63;;;2.70;;
54993;SDS011;40891;47.242;8.648;2024-03-22T05:27:03;10.03;;;3.00;;
54993;SDS011;40891;47.242;8.648;2024-03-22T05:29:28;6.07;;;2.97;;
54993;SDS011;40891;47.242;8.648;2024-03-22T05:31:53;7.23;;;2.57;;
54993;SDS011;40891;47.242;8.648;2024-03-22T05:34:19;5.93;;;3.03;;
54993;SDS011;40891;47.242;8.648;2024-03-22T05:36:45;8.43;;;2.80;;
54993;SDS011;40891;47.242;8.648;2024-03-22T05:39:10;4.70;;;2.43;;
54993;SDS011;40891;47.242;8.648;2024-03-22T05:41:36;6.37;;;2.90;;
54993;SDS011;40891;47.242;8.648;2024-03-22T05:44:02;6.13;;;2.70;;
54993;SDS011;40891;47.242;8.648;2024-03-22T05:46:28;5.17;;;2.50;;
54993;SDS011;40891;47.242;8.648;2024-03-22T05:48:53;3.53;;;2.40;;
54993;SDS011;40891;47.242;8.648;2024-03-22T05:51:19;3.77;;;2.57;;
54993;SDS011;40891;47.242;8.648;2024-03-22T05:53:45;6.63;;;2.80;;
54993;SDS011;40891;47.242;8.648;2024-03-22T05:56:10;4.73;;;2.63;;
54993;SDS011;40891;47.242;8.648;2024-03-22T05:58:36;4.50;;;2.73;;
54993;SDS011;40891;47.242;8.648;2024-03-22T06:01:01;4.37;;;2.70;;
54993;SDS011;40891;47.242;8.648;2024-03-22T06:03:28;3.37;;;2.53;;
54993;SDS011;40891;47.242;8.648;2024-03-22T06:05:54;3.83;;;2.50;;
54993;SDS011;40891;47.242;8.648;2024-03-22T06:08:21;4.63;;;2.60;;
54993;SDS011;40891;47.242;8.648;2024-03-22T06:10:47;6.33;;;2.80;;
54993;SDS011;40891;47.242;8.648;2024-03-22T06:13:13;3.73;;;2.83;;
54993;SDS011;40891;47.242;8.648;2024-03-22T06:15:38;4.70;;;2.57;;
54993;SDS011;40891;47.242;8.648;2024-03-22T06:18:03;3.83;;;2.73;;
54993;SDS011;40891;47.242;8.648;2024-03-22T06:20:29;5.63;;;2.20;;
54993;SDS011;40891;47.242;8.648;2024-03-22T06:22:55;3.50;;;2.30;;
54993;SDS011;40891;47.242;8.648;2024-03-22T06:25:20;4.03;;;2.90;;
54993;SDS011;40891;47.242;8.648;2024-03-22T06:27:46;4.63;;;2.10;;
54993;SDS011;40891;47.242;8.648;2024-03-22T06:30:11;6.37;;;2.57;;
54993;SDS011;40891;47.242;8.648;2024-03-22T06:32:37;3.07;;;2.20;;
54993;SDS011;40891;47.242;8.648;2024-03-22T06:35:02;2.97;;;2.15;;
54993;SDS011;40891;47.242;8.648;2024-03-22T06:37:28;3.80;;;2.27;;
54993;SDS011;40891;47.242;8.648;2024-03-22T06:39:53;4.20;;;2.30;;
54993;SDS011;40891;47.242;8.648;2024-03-22T06:42:19;3.38;;;1.88;;
54993;SDS011;40891;47.242;8.648;2024-03-22T06:44:44;4.60;;;1.90;;
54993;SDS011;40891;47.242;8.648;2024-03-22T06:47:09;5.10;;;2.37;;
54993;SDS011;40891;47.242;8.648;2024-03-22T06:49:34;2.63;;;2.00;;
54993;SDS011;40891;47.242;8.648;2024-03-22T06:52:00;5.30;;;2.33;;
54993;SDS011;40891;47.242;8.648;2024-03-22T06:54:25;6.07;;;2.20;;
54993;SDS011;40891;47.242;8.648;2024-03-22T06:56:51;5.97;;;2.30;;
54993;SDS011;40891;47.242;8.648;2024-03-22T06:59:16;6.00;;;2.07;;
54993;SDS011;40891;47.242;8.648;2024-03-22T07:01:42;3.70;;;2.00;;
54993;SDS011;40891;47.242;8.648;2024-03-22T07:04:07;3.58;;;2.05;;
54993;SDS011;40891;47.242;8.648;2024-03-22T07:06:33;5.43;;;2.20;;
54993;SDS011;40891;47.242;8.648;2024-03-22T07:08:58;4.03;;;2.30;;
54993;SDS011;40891;47.242;8.648;2024-03-22T07:11:23;6.65;;;2.28;;
54993;SDS011;40891;47.242;8.648;2024-03-22T07:13:49;4.25;;;2.35;;
54993;SDS011;40891;47.242;8.648;2024-03-22T07:16:14;2.87;;;1.90;;
54993;SDS011;40891;47.242;8.648;2024-03-22T07:18:39;2.88;;;2.10;;
54993;SDS011;40891;47.242;8.648;2024-03-22T07:21:05;4.32;;;2.22;;
54993;SDS011;40891;47.242;8.648;2024-03-22T07:23:30;4.10;;;2.13;;
54993;SDS011;40891;47.242;8.648;2024-03-22T07:25:56;4.32;;;2.28;;
54993;SDS011;40891;47.242;8.648;2024-03-22T07:28:21;3.93;;;2.20;;
54993;SDS011;40891;47.242;8.648;2024-03-22T07:30:46;4.10;;;2.58;;
54993;SDS011;40891;47.242;8.648;2024-03-22T07:33:12;6.97;;;1.80;;
54993;SDS011;40891;47.242;8.648;2024-03-22T07:35:42;3.17;;;2.08;;
54993;SDS011;40891;47.242;8.648;2024-03-22T07:38:08;6.68;;;2.08;;
54993;SDS011;40891;47.242;8.648;2024-03-22T07:40:34;7.38;;;2.20;;
54993;SDS011;40891;47.242;8.648;2024-03-22T07:42:59;2.85;;;1.73;;
54993;SDS011;40891;47.242;8.648;2024-03-22T07:45:24;4.38;;;2.20;;
54993;SDS011;40891;47.242;8.648;2024-03-22T07:47:50;3.38;;;2.47;;
54993;SDS011;40891;47.242;8.648;2024-03-22T07:50:15;4.50;;;2.05;;
54993;SDS011;40891;47.242;8.648;2024-03-22T07:52:40;3.55;;;1.95;;
54993;SDS011;40891;47.242;8.648;2024-03-22T07:55:06;2.92;;;2.00;;
54993;SDS011;40891;47.242;8.648;2024-03-22T07:57:32;6.30;;;2.10;;
54993;SDS011;40891;47.242;8.648;2024-03-22T07:59:57;2.90;;;1.60;;
54993;SDS011;40891;47.242;8.648;2024-03-22T08:02:23;7.10;;;1.98;;
54993;SDS011;40891;47.242;8.648;2024-03-22T08:04:49;3.47;;;2.10;;
54993;SDS011;40891;47.242;8.648;2024-03-22T08:07:14;4.82;;;1.75;;
54993;SDS011;40891;47.242;8.648;2024-03-22T08:09:39;3.90;;;1.92;;
54993;SDS011;40891;47.242;8.648;2024-03-22T08:12:05;2.95;;;1.73;;
54993;SDS011;40891;47.242;8.648;2024-03-22T08:14:31;6.47;;;2.10;;
54993;SDS011;40891;47.242;8.648;2024-03-22T08:16:56;4.18;;;1.88;;
54993;SDS011;40891;47.242;8.648;2024-03-22T08:19:22;4.80;;;1.80;;
54993;SDS011;40891;47.242;8.648;2024-03-22T08:21:47;4.53;;;2.08;;
54993;SDS011;40891;47.242;8.648;2024-03-22T08:24:12;3.00;;;2.08;;
54993;SDS011;40891;47.242;8.648;2024-03-22T08:26:38;2.13;;;1.80;;
54993;SDS011;40891;47.242;8.648;2024-03-22T08:29:03;2.70;;;1.50;;
54993;SDS011;40891;47.242;8.648;2024-03-22T08:31:28;3.58;;;1.80;;
54993;SDS011;40891;47.242;8.648;2024-03-22T08:33:54;6.95;;;1.80;;
54993;SDS011;40891;47.242;8.648;2024-03-22T08:36:21;4.95;;;1.70;;
54993;SDS011;40891;47.242;8.648;2024-03-22T08:38:47;5.50;;;2.17;;
54993;SDS011;40891;47.242;8.648;2024-03-22T08:41:12;5.13;;;2.35;;
54993;SDS011;40891;47.242;8.648;2024-03-22T08:43:38;6.18;;;1.73;;
54993;SDS011;40891;47.242;8.648;2024-03-22T08:46:03;5.75;;;2.10;;
54993;SDS011;40891;47.242;8.648;2024-03-22T08:48:29;2.50;;;1.70;;
54993;SDS011;40891;47.242;8.648;2024-03-22T08:50:54;3.60;;;1.88;;
54993;SDS011;40891;47.242;8.648;2024-03-22T08:53:20;4.18;;;1.70;;
54993;SDS011;40891;47.242;8.648;2024-03-22T08:55:48;3.08;;;1.95;;
54993;SDS011;40891;47.242;8.648;2024-03-22T08:58:14;6.38;;;1.88;;
54993;SDS011;40891;47.242;8.648;2024-03-22T09:00:40;3.38;;;2.05;;
54993;SDS011;40891;47.242;8.648;2024-03-22T09:03:06;3.05;;;1.80;;
54993;SDS011;40891;47.242;8.648;2024-03-22T09:05:32;6.03;;;1.90;;
54993;SDS011;40891;47.242;8.648;2024-03-22T09:07:58;3.28;;;1.95;;
54993;SDS011;40891;47.242;8.648;2024-03-22T09:10:24;3.03;;;1.75;;
54993;SDS011;40891;47.242;8.648;2024-03-22T09:12:49;3.25;;;1.80;;
54993;SDS011;40891;47.242;8.648;2024-03-22T09:15:14;3.33;;;2.00;;
54993;SDS011;40891;47.242;8.648;2024-03-22T09:17:40;3.58;;;2.00;;
54993;SDS011;40891;47.242;8.648;2024-03-22T09:20:05;4.30;;;1.65;;
54993;SDS011;40891;47.242;8.648;2024-03-22T09:22:32;4.78;;;2.30;;
54993;SDS011;40891;47.242;8.648;2024-03-22T09:24:58;7.50;;;2.33;;
54993;SDS011;40891;47.242;8.648;2024-03-22T09:27:24;3.95;;;2.45;;
54993;SDS011;40891;47.242;8.648;2024-03-22T09:29:49;6.35;;;2.10;;
54993;SDS011;40891;47.242;8.648;2024-03-22T09:32:15;4.85;;;1.92;;
54993;SDS011;40891;47.242;8.648;2024-03-22T09:34:40;3.65;;;1.95;;
54993;SDS011;40891;47.242;8.648;2024-03-22T09:37:05;3.47;;;1.90;;
54993;SDS011;40891;47.242;8.648;2024-03-22T09:39:31;4.68;;;1.90;;
54993;SDS011;40891;47.242;8.648;2024-03-22T09:41:57;2.97;;;2.03;;
54993;SDS011;40891;47.242;8.648;2024-03-22T09:44:24;8.20;;;2.00;;
54993;SDS011;40891;47.242;8.648;2024-03-22T09:46:52;3.25;;;1.92;;
54993;SDS011;40891;47.242;8.648;2024-03-22T09:49:18;2.65;;;2.10;;
54993;SDS011;40891;47.242;8.648;2024-03-22T09:51:43;2.83;;;1.75;;
54993;SDS011;40891;47.242;8.648;2024-03-22T09:54:12;5.65;;;1.98;;
54993;SDS011;40891;47.242;8.648;2024-03-22T09:56:38;3.10;;;2.10;;
54993;SDS011;40891;47.242;8.648;2024-03-22T09:59:05;6.75;;;1.83;;
54993;SDS011;40891;47.242;8.648;2024-03-22T10:01:31;7.30;;;1.83;;
54993;SDS011;40891;47.242;8.648;2024-03-22T10:03:57;3.75;;;2.35;;
54993;SDS011;40891;47.242;8.648;2024-03-22T10:06:22;2.90;;;1.95;;
54993;SDS011;40891;47.242;8.648;2024-03-22T10:08:48;4.15;;;2.30;;
54993;SDS011;40891;47.242;8.648;2024-03-22T10:11:13;4.93;;;2.25;;
54993;SDS011;40891;47.242;8.648;2024-03-22T10:13:38;2.83;;;2.28;;
54993;SDS011;40891;47.242;8.648;2024-03-22T10:16:04;5.70;;;2.63;;
54993;SDS011;40891;47.242;8.648;2024-03-22T10:18:32;7.78;;;2.80;;
54993;SDS011;40891;47.242;8.648;2024-03-22T10:20:59;5.68;;;2.40;;
54993;SDS011;40891;47.242;8.648;2024-03-22T10:23:29;2.95;;;2.13;;
54993;SDS011;40891;47.242;8.648;2024-03-22T10:25:56;9.35;;;2.25;;
54993;SDS011;40891;47.242;8.648;2024-03-22T10:28:23;4.22;;;2.00;;
54993;SDS011;40891;47.242;8.648;2024-03-22T10:30:51;3.75;;;1.92;;
54993;SDS011;40891;47.242;8.648;2024-03-22T10:33:20;2.50;;;1.80;;
54993;SDS011;40891;47.242;8.648;2024-03-22T10:35:52;4.97;;;1.98;;
54993;SDS011;40891;47.242;8.648;2024-03-22T10:38:19;2.92;;;1.95;;
54993;SDS011;40891;47.242;8.648;2024-03-22T10:40:46;2.80;;;1.70;;
54993;SDS011;40891;47.242;8.648;2024-03-22T10:43:13;2.72;;;1.95;;
54993;SDS011;40891;47.242;8.648;2024-03-22T10:45:39;4.70;;;1.77;;
54993;SDS011;40891;47.242;8.648;2024-03-22T10:48:08;4.43;;;1.60;;
54993;SDS011;40891;47.242;8.648;2024-03-22T10:50:34;2.97;;;1.50;;
54993;SDS011;40891;47.242;8.648;2024-03-22T10:53:03;3.25;;;1.88;;
54993;SDS011;40891;47.242;8.648;2024-03-22T10:55:36;2.55;;;1.75;;
54993;SDS011;40891;47.242;8.648;2024-03-22T10:58:04;5.15;;;1.77;;
54993;SDS011;40891;47.242;8.648;2024-03-22T11:00:30;4.57;;;1.83;;
54993;SDS011;40891;47.242;8.648;2024-03-22T11:02:56;4.90;;;2.20;;
54993;SDS011;40891;47.242;8.648;2024-03-22T11:05:22;2.22;;;1.60;;
54993;SDS011;40891;47.242;8.648;2024-03-22T11:07:58;3.67;;;1.40;;
54993;SDS011;40891;47.242;8.648;2024-03-22T11:10:29;3.65;;;2.10;;
54993;SDS011;40891;47.242;8.648;2024-03-22T11:12:55;1.95;;;1.38;;
54993;SDS011;40891;47.242;8.648;2024-03-22T11:15:21;1.52;;;1.10;;
54993;SDS011;40891;47.242;8.648;2024-03-22T11:17:47;2.90;;;1.20;;
54993;SDS011;40891;47.242;8.648;2024-03-22T11:20:14;2.88;;;1.20;;
54993;SDS011;40891;47.242;8.648;2024-03-22T11:22:40;3.38;;;1.25;;
54993;SDS011;40891;47.242;8.648;2024-03-22T11:25:06;4.82;;;1.10;;
54993;SDS011;40891;47.242;8.648;2024-03-22T11:27:32;2.17;;;1.50;;
54993;SDS011;40891;47.242;8.648;2024-03-22T11:29:57;2.05;;;1.20;;
54993;SDS011;40891;47.242;8.648;2024-03-22T11:32:23;4.95;;;1.40;;
54993;SDS011;40891;47.242;8.648;2024-03-22T11:34:49;3.10;;;1.40;;
54993;SDS011;40891;47.242;8.648;2024-03-22T11:37:14;2.75;;;1.20;;
54993;SDS011;40891;47.242;8.648;2024-03-22T11:39:39;5.88;;;1.40;;
54993;SDS011;40891;47.242;8.648;2024-03-22T11:42:05;2.58;;;1.20;;
54993;SDS011;40891;47.242;8.648;2024-03-22T11:44:32;4.53;;;1.58;;
54993;SDS011;40891;47.242;8.648;2024-03-22T11:46:59;2.47;;;1.50;;
54993;SDS011;40891;47.242;8.648;2024-03-22T11:49:25;2.97;;;1.63;;
54993;SDS011;40891;47.242;8.648;2024-03-22T11:51:51;5.00;;;1.42;;
54993;SDS011;40891;47.242;8.648;2024-03-22T11:54:19;4.22;;;1.30;;
54993;SDS011;40891;47.242;8.648;2024-03-22T11:56:45;5.53;;;1.23;;
54993;SDS011;40891;47.242;8.648;2024-03-22T11:59:10;3.15;;;1.10;;
54993;SDS011;40891;47.242;8.648;2024-03-22T12:01:36;1.90;;;1.10;;
54993;SDS011;40891;47.242;8.648;2024-03-22T12:04:01;1.70;;;1.20;;
54993;SDS011;40891;47.242;8.648;2024-03-22T12:06:27;2.80;;;1.40;;
54993;SDS011;40891;47.242;8.648;2024-03-22T12:08:52;3.10;;;1.30;;
54993;SDS011;40891;47.242;8.648;2024-03-22T12:11:18;3.80;;;1.23;;
54993;SDS011;40891;47.242;8.648;2024-03-22T12:13:43;1.63;;;1.10;;
54993;SDS011;40891;47.242;8.648;2024-03-22T12:16:09;4.60;;;1.30;;
54993;SDS011;40891;47.242;8.648;2024-03-22T12:18:34;3.80;;;1.10;;
54993;SDS011;40891;47.242;8.648;2024-03-22T12:21:00;1.60;;;1.10;;
54993;SDS011;40891;47.242;8.648;2024-03-22T12:23:26;3.50;;;1.30;;
54993;SDS011;40891;47.242;8.648;2024-03-22T12:25:51;2.55;;;1.10;;
54993;SDS011;40891;47.242;8.648;2024-03-22T12:28:17;2.78;;;0.93;;
54993;SDS011;40891;47.242;8.648;2024-03-22T12:30:43;9.65;;;1.25;;
54993;SDS011;40891;47.242;8.648;2024-03-22T12:33:09;3.22;;;1.00;;
54993;SDS011;40891;47.242;8.648;2024-03-22T12:35:39;4.88;;;1.17;;
54993;SDS011;40891;47.242;8.648;2024-03-22T12:38:05;3.45;;;1.17;;
54993;SDS011;40891;47.242;8.648;2024-03-22T12:40:31;2.45;;;1.00;;
54993;SDS011;40891;47.242;8.648;2024-03-22T12:42:59;1.95;;;1.00;;
54993;SDS011;40891;47.242;8.648;2024-03-22T12:45:24;0.75;;;0.70;;
54993;SDS011;40891;47.242;8.648;2024-03-22T12:47:50;3.10;;;0.88;;
54993;SDS011;40891;47.242;8.648;2024-03-22T12:50:15;3.50;;;1.15;;
54993;SDS011;40891;47.242;8.648;2024-03-22T12:52:41;2.67;;;0.98;;
54993;SDS011;40891;47.242;8.648;2024-03-22T12:55:09;3.13;;;0.90;;
54993;SDS011;40891;47.242;8.648;2024-03-22T12:57:34;1.73;;;0.90;;
54993;SDS011;40891;47.242;8.648;2024-03-22T13:00:00;3.00;;;1.40;;
54993;SDS011;40891;47.242;8.648;2024-03-22T13:02:26;2.97;;;1.10;;
54993;SDS011;40891;47.242;8.648;2024-03-22T13:04:51;1.73;;;0.95;;
54993;SDS011;40891;47.242;8.648;2024-03-22T13:07:18;1.67;;;1.10;;
54993;SDS011;40891;47.242;8.648;2024-03-22T13:09:44;1.48;;;1.10;;
54993;SDS011;40891;47.242;8.648;2024-03-22T13:12:10;2.08;;;1.15;;
54993;SDS011;40891;47.242;8.648;2024-03-22T13:14:35;3.35;;;1.35;;
54993;SDS011;40891;47.242;8.648;2024-03-22T13:17:00;3.80;;;1.83;;
54993;SDS011;40891;47.242;8.648;2024-03-22T13:19:26;3.67;;;1.30;;
54993;SDS011;40891;47.242;8.648;2024-03-22T13:21:52;5.00;;;1.15;;
54993;SDS011;40891;47.242;8.648;2024-03-22T13:24:17;3.25;;;1.15;;
54993;SDS011;40891;47.242;8.648;2024-03-22T13:26:43;2.55;;;1.33;;
54993;SDS011;40891;47.242;8.648;2024-03-22T13:29:09;1.67;;;1.20;;
54993;SDS011;40891;47.242;8.648;2024-03-22T13:31:34;2.58;;;1.00;;
54993;SDS011;40891;47.242;8.648;2024-03-22T13:34:00;1.65;;;1.10;;
54993;SDS011;40891;47.242;8.648;2024-03-22T13:36:25;2.20;;;1.35;;
54993;SDS011;40891;47.242;8.648;2024-03-22T13:38:50;2.88;;;1.85;;
54993;SDS011;40891;47.242;8.648;2024-03-22T13:41:16;2.22;;;1.10;;
54993;SDS011;40891;47.242;8.648;2024-03-22T13:43:41;1.88;;;1.10;;
54993;SDS011;40891;47.242;8.648;2024-03-22T13:46:09;2.30;;;0.95;;
54993;SDS011;40891;47.242;8.648;2024-03-22T13:48:39;1.75;;;1.08;;
54993;SDS011;40891;47.242;8.648;2024-03-22T13:51:04;2.33;;;1.13;;
54993;SDS011;40891;47.242;8.648;2024-03-22T13:53:30;3.90;;;1.33;;
54993;SDS011;40891;47.242;8.648;2024-03-22T13:55:55;2.47;;;1.20;;
54993;SDS011;40891;47.242;8.648;2024-03-22T13:58:21;3.05;;;1.10;;
54993;SDS011;40891;47.242;8.648;2024-03-22T14:00:47;2.83;;;1.00;;
54993;SDS011;40891;47.242;8.648;2024-03-22T14:03:12;2.83;;;1.00;;
54993;SDS011;40891;47.242;8.648;2024-03-22T14:05:38;1.50;;;1.08;;
54993;SDS011;40891;47.242;8.648;2024-03-22T14:08:03;4.25;;;1.10;;
54993;SDS011;40891;47.242;8.648;2024-03-22T14:10:29;3.65;;;1.10;;
54993;SDS011;40891;47.242;8.648;2024-03-22T14:12:58;3.05;;;0.95;;
54993;SDS011;40891;47.242;8.648;2024-03-22T14:15:24;3.90;;;1.25;;
54993;SDS011;40891;47.242;8.648;2024-03-22T14:17:56;6.68;;;1.40;;
54993;SDS011;40891;47.242;8.648;2024-03-22T14:20:22;5.20;;;1.00;;
54993;SDS011;40891;47.242;8.648;2024-03-22T14:22:48;3.50;;;1.10;;
54993;SDS011;40891;47.242;8.648;2024-03-22T14:25:13;1.67;;;0.98;;
54993;SDS011;40891;47.242;8.648;2024-03-22T14:27:38;2.78;;;1.13;;
54993;SDS011;40891;47.242;8.648;2024-03-22T14:30:04;3.72;;;1.17;;
54993;SDS011;40891;47.242;8.648;2024-03-22T14:32:31;2.13;;;1.00;;
54993;SDS011;40891;47.242;8.648;2024-03-22T14:34:57;1.25;;;1.00;;
54993;SDS011;40891;47.242;8.648;2024-03-22T14:37:22;2.85;;;1.10;;
54993;SDS011;40891;47.242;8.648;2024-03-22T14:39:48;2.17;;;1.13;;